createdAt,value
2022-12-20T00:01:07.725Z,99.99
2022-12-20T00:02:07.840Z,99.99
2022-12-20T00:04:04.942Z,99.99
2022-12-20T00:05:04.885Z,99.99
2022-12-20T00:07:09.920Z,99.99
2022-12-20T00:08:09.901Z,99.99
2022-12-20T00:10:13.925Z,99.99
2022-12-20T00:11:13.896Z,99.99
2022-12-20T00:13:18.533Z,99.99
2022-12-20T00:14:18.116Z,99.99
2022-12-20T00:16:23.631Z,99.99
2022-12-20T00:17:23.252Z,99.99
2022-12-20T00:19:27.617Z,99.99
2022-12-20T00:20:27.087Z,99.99
2022-12-20T00:22:31.075Z,99.99
2022-12-20T00:23:31.063Z,99.99
2022-12-20T00:25:35.071Z,99.99
2022-12-20T00:26:35.027Z,99.99
2022-12-20T00:28:28.135Z,99.99
2022-12-20T00:29:28.110Z,99.99
2022-12-20T00:31:32.201Z,99.99
2022-12-20T00:32:32.109Z,99.99
2022-12-20T00:34:25.198Z,99.99
2022-12-20T00:35:25.173Z,99.99
2022-12-20T00:37:29.200Z,99.99
2022-12-20T00:38:29.240Z,99.99
2022-12-20T00:40:33.213Z,99.99
2022-12-20T00:41:33.113Z,99.99
2022-12-20T00:43:26.060Z,99.99
2022-12-20T00:44:26.024Z,99.99
2022-12-20T00:46:30.088Z,99.99
2022-12-20T00:47:29.996Z,99.99
2022-12-20T00:49:33.988Z,99.99
2022-12-20T00:50:33.977Z,99.99
2022-12-20T00:52:37.986Z,99.99
2022-12-20T00:53:37.966Z,99.99
2022-12-20T00:55:41.941Z,99.99
2022-12-20T00:56:41.909Z,99.99
2022-12-20T00:58:45.981Z,99.99
2022-12-20T00:59:45.940Z,99.99
2022-12-20T01:00:49.089Z,99.99
2022-12-20T01:01:46.045Z,99.99
2022-12-20T01:02:46.033Z,99.99
2022-12-20T01:03:46.021Z,99.99
2022-12-20T01:04:45.894Z,99.99
2022-12-20T01:05:45.880Z,99.99
2022-12-20T01:06:45.873Z,99.99
2022-12-20T01:07:45.873Z,99.91
2022-12-20T01:08:45.879Z,99.99
2022-12-20T01:09:45.851Z,99.91
2022-12-20T01:10:45.854Z,99.91
2022-12-20T01:11:45.828Z,99.99
2022-12-20T01:12:45.821Z,99.91
2022-12-20T01:13:45.812Z,99.99
2022-12-20T01:14:45.805Z,99.99
2022-12-20T01:15:45.794Z,99.91
2022-12-20T01:16:45.893Z,99.72
2022-12-20T01:17:45.777Z,99.72
2022-12-20T01:18:45.781Z,99.06
2022-12-20T01:19:45.760Z,99.15
2022-12-20T01:20:45.770Z,99.15
2022-12-20T01:21:45.763Z,99.15
2022-12-20T01:22:47.825Z,99.34
2022-12-20T01:23:45.722Z,99.99
2022-12-20T01:24:45.750Z,99.15
2022-12-20T01:25:45.711Z,99.34
2022-12-20T01:26:45.697Z,99.44
2022-12-20T01:27:45.698Z,99.44
2022-12-20T01:28:45.717Z,99.15
2022-12-20T01:29:45.682Z,99.25
2022-12-20T01:30:45.750Z,99.34
2022-12-20T01:31:45.762Z,98.96
2022-12-20T01:32:45.648Z,98.96
2022-12-20T01:33:45.634Z,98.87
2022-12-20T01:34:45.640Z,98.87
2022-12-20T01:35:45.621Z,98.77
2022-12-20T01:36:45.624Z,98.58
2022-12-20T01:37:45.602Z,99.06
2022-12-20T01:38:45.594Z,98.68
2022-12-20T01:39:45.592Z,98.58
2022-12-20T01:40:45.591Z,99.15
2022-12-20T01:41:45.569Z,98.77
2022-12-20T01:42:45.576Z,98.77
2022-12-20T01:43:45.562Z,98.68
2022-12-20T01:44:45.543Z,98.68
2022-12-20T01:45:45.580Z,98.87
2022-12-20T01:46:45.546Z,98.68
2022-12-20T01:47:45.535Z,98.87
2022-12-20T01:48:45.511Z,99.06
2022-12-20T01:49:45.506Z,98.87
2022-12-20T01:50:45.508Z,98.87
2022-12-20T01:51:45.510Z,98.58
2022-12-20T01:52:45.483Z,98.39
2022-12-20T01:53:45.473Z,98.58
2022-12-20T01:54:45.483Z,98.87
2022-12-20T01:55:45.458Z,98.87
2022-12-20T01:56:45.456Z,98.68
2022-12-20T01:57:45.518Z,98.49
2022-12-20T01:58:45.424Z,98.21
2022-12-20T01:59:45.424Z,98.02
2022-12-20T02:00:45.487Z,98.30
2022-12-20T02:01:45.555Z,98.30
2022-12-20T02:02:45.537Z,98.30
2022-12-20T02:03:45.460Z,98.30
2022-12-20T02:04:45.384Z,98.21
2022-12-20T02:05:45.399Z,98.30
2022-12-20T02:06:45.381Z,98.21
2022-12-20T02:07:45.361Z,98.30
2022-12-20T02:08:45.343Z,98.30
2022-12-20T02:09:45.341Z,98.30
2022-12-20T02:10:45.354Z,98.30
2022-12-20T02:11:45.307Z,98.30
2022-12-20T02:12:45.347Z,98.30
2022-12-20T02:13:45.309Z,98.30
2022-12-20T02:14:45.294Z,98.58
2022-12-20T02:15:45.313Z,98.58
2022-12-20T02:16:45.313Z,98.39
2022-12-20T02:17:45.264Z,97.64
2022-12-20T02:18:45.253Z,98.68
2022-12-20T02:19:45.251Z,98.58
2022-12-20T02:20:45.241Z,98.11
2022-12-20T02:21:45.228Z,98.49
2022-12-20T02:22:45.238Z,98.21
2022-12-20T02:23:45.213Z,98.21
2022-12-20T02:24:45.214Z,98.30
2022-12-20T02:25:45.209Z,98.21
2022-12-20T02:26:45.187Z,98.58
2022-12-20T02:27:45.177Z,98.39
2022-12-20T02:28:45.188Z,98.21
2022-12-20T02:29:45.170Z,98.11
2022-12-20T02:30:45.171Z,98.25
2022-12-20T02:31:45.221Z,98.49
2022-12-20T02:32:45.166Z,98.11
2022-12-20T02:33:45.131Z,98.16
2022-12-20T02:34:45.126Z,98.16
2022-12-20T02:35:45.118Z,98.30
2022-12-20T02:36:45.110Z,97.83
2022-12-20T02:37:45.098Z,97.92
2022-12-20T02:38:45.105Z,97.97
2022-12-20T02:39:45.082Z,98.16
2022-12-20T02:40:45.086Z,98.35
2022-12-20T02:41:45.061Z,98.16
2022-12-20T02:42:45.045Z,98.44
2022-12-20T02:43:45.046Z,98.25
2022-12-20T02:44:45.044Z,97.88
2022-12-20T02:45:45.033Z,97.97
2022-12-20T02:46:45.010Z,97.50
2022-12-20T02:47:45.018Z,97.31
2022-12-20T02:48:44.997Z,97.21
2022-12-20T02:49:45.007Z,97.40
2022-12-20T02:50:44.998Z,97.50
2022-12-20T02:51:44.977Z,97.69
2022-12-20T02:52:44.984Z,97.59
2022-12-20T02:53:44.963Z,97.69
2022-12-20T02:54:44.955Z,97.69
2022-12-20T02:55:45.016Z,97.50
2022-12-20T02:56:44.949Z,97.78
2022-12-20T02:57:44.939Z,97.21
2022-12-20T02:58:44.912Z,97.31
2022-12-20T02:59:44.910Z,97.21
2022-12-20T03:00:44.897Z,97.02
2022-12-20T03:01:45.059Z,96.83
2022-12-20T03:02:45.023Z,96.83
2022-12-20T03:03:44.910Z,96.64
2022-12-20T03:04:44.890Z,96.83
2022-12-20T03:05:44.866Z,96.64
2022-12-20T03:06:44.847Z,96.73
2022-12-20T03:07:44.861Z,96.73
2022-12-20T03:08:44.828Z,96.64
2022-12-20T03:09:44.852Z,96.64
2022-12-20T03:10:44.810Z,96.55
2022-12-20T03:11:44.815Z,96.92
2022-12-20T03:12:44.824Z,96.73
2022-12-20T03:13:44.790Z,96.64
2022-12-20T03:14:44.801Z,96.83
2022-12-20T03:15:44.781Z,96.83
2022-12-20T03:16:44.876Z,97.02
2022-12-20T03:17:44.821Z,96.92
2022-12-20T03:18:44.759Z,96.45
2022-12-20T03:19:44.759Z,96.36
2022-12-20T03:20:44.726Z,96.36
2022-12-20T03:21:44.789Z,96.64
2022-12-20T03:22:44.755Z,96.64
2022-12-20T03:23:44.708Z,96.73
2022-12-20T03:24:44.727Z,96.73
2022-12-20T03:25:44.719Z,96.55
2022-12-20T03:26:44.688Z,96.08
2022-12-20T03:27:44.678Z,96.08
2022-12-20T03:28:44.665Z,95.98
2022-12-20T03:29:44.681Z,96.17
2022-12-20T03:30:44.727Z,96.08
2022-12-20T03:31:44.638Z,95.98
2022-12-20T03:32:44.636Z,96.45
2022-12-20T03:33:44.616Z,96.08
2022-12-20T03:34:44.613Z,95.98
2022-12-20T03:35:44.627Z,96.17
2022-12-20T03:36:44.603Z,96.17
2022-12-20T03:37:44.588Z,95.79
2022-12-20T03:38:44.574Z,96.08
2022-12-20T03:39:44.577Z,95.98
2022-12-20T03:40:44.564Z,96.08
2022-12-20T03:41:44.575Z,96.36
2022-12-20T03:42:44.556Z,96.08
2022-12-20T03:43:44.547Z,95.79
2022-12-20T03:44:44.565Z,96.17
2022-12-20T03:45:44.528Z,96.08
2022-12-20T03:46:44.569Z,96.17
2022-12-20T03:47:44.529Z,96.36
2022-12-20T03:48:44.499Z,96.17
2022-12-20T03:49:44.488Z,95.88
2022-12-20T03:50:44.477Z,95.60
2022-12-20T03:51:44.480Z,95.69
2022-12-20T03:52:44.477Z,95.60
2022-12-20T03:53:44.450Z,95.60
2022-12-20T03:54:44.459Z,95.60
2022-12-20T03:55:45.740Z,95.79
2022-12-20T03:56:44.429Z,95.79
2022-12-20T03:57:44.427Z,95.98
2022-12-20T03:58:44.412Z,95.69
2022-12-20T03:59:44.415Z,95.88
2022-12-20T04:00:44.403Z,95.88
2022-12-20T04:01:44.511Z,95.79
2022-12-20T04:02:44.639Z,95.88
2022-12-20T04:03:44.450Z,95.88
2022-12-20T04:04:44.372Z,95.69
2022-12-20T04:05:44.354Z,95.60
2022-12-20T04:06:44.341Z,95.60
2022-12-20T04:07:44.336Z,95.88
2022-12-20T04:08:44.340Z,95.69
2022-12-20T04:09:44.324Z,96.17
2022-12-20T04:10:44.318Z,96.17
2022-12-20T04:11:44.314Z,95.88
2022-12-20T04:12:44.322Z,96.08
2022-12-20T04:13:44.299Z,95.88
2022-12-20T04:14:44.290Z,96.26
2022-12-20T04:15:44.332Z,95.69
2022-12-20T04:16:44.270Z,95.98
2022-12-20T04:17:44.262Z,95.79
2022-12-20T04:18:44.256Z,95.98
2022-12-20T04:19:44.247Z,95.98
2022-12-20T04:20:44.241Z,95.69
2022-12-20T04:21:44.231Z,95.88
2022-12-20T04:22:44.219Z,95.60
2022-12-20T04:23:44.204Z,95.50
2022-12-20T04:24:44.195Z,95.60
2022-12-20T04:25:44.196Z,95.69
2022-12-20T04:26:44.182Z,95.79
2022-12-20T04:27:44.178Z,96.17
2022-12-20T04:28:44.184Z,95.98
2022-12-20T04:29:44.158Z,96.36
2022-12-20T04:30:44.178Z,95.79
2022-12-20T04:31:44.200Z,95.50
2022-12-20T04:32:44.136Z,95.88
2022-12-20T04:33:44.127Z,95.69
2022-12-20T04:34:44.126Z,95.69
2022-12-20T04:35:44.112Z,95.69
2022-12-20T04:36:44.107Z,95.88
2022-12-20T04:37:44.097Z,96.26
2022-12-20T04:38:44.089Z,96.08
2022-12-20T04:39:44.087Z,96.26
2022-12-20T04:40:44.095Z,95.88
2022-12-20T04:41:44.087Z,95.98
2022-12-20T04:42:44.041Z,95.88
2022-12-20T04:43:44.045Z,95.98
2022-12-20T04:44:44.054Z,95.41
2022-12-20T04:45:44.024Z,95.98
2022-12-20T04:46:44.023Z,95.79
2022-12-20T04:47:44.005Z,95.98
2022-12-20T04:48:57.162Z,95.88
2022-12-20T04:49:43.992Z,96.17
2022-12-20T04:50:43.970Z,96.08
2022-12-20T04:51:43.976Z,96.17
2022-12-20T04:52:47.863Z,95.98
2022-12-20T04:53:43.955Z,95.69
2022-12-20T04:54:43.951Z,95.41
2022-12-20T04:55:43.948Z,95.60
2022-12-20T04:56:43.976Z,95.50
2022-12-20T04:57:43.927Z,96.26
2022-12-20T04:58:43.921Z,95.41
2022-12-20T04:59:43.909Z,95.50
2022-12-20T05:00:43.897Z,95.69
2022-12-20T05:01:43.991Z,95.79
2022-12-20T05:02:44.088Z,95.79
2022-12-20T05:03:43.987Z,95.79
2022-12-20T05:04:43.861Z,95.41
2022-12-20T05:05:43.861Z,96.17
2022-12-20T05:06:43.872Z,96.36
2022-12-20T05:07:43.853Z,96.26
2022-12-20T05:08:43.836Z,95.22
2022-12-20T05:09:43.820Z,95.41
2022-12-20T05:10:43.812Z,95.50
2022-12-20T05:11:43.808Z,95.69
2022-12-20T05:12:43.813Z,95.50
2022-12-20T05:13:43.798Z,95.41
2022-12-20T05:14:43.780Z,95.69
2022-12-20T05:15:43.844Z,95.79
2022-12-20T05:16:43.913Z,95.60
2022-12-20T05:17:43.761Z,95.79
2022-12-20T05:18:48.944Z,95.69
2022-12-20T05:19:43.743Z,95.69
2022-12-20T05:20:43.729Z,95.79
2022-12-20T05:21:43.752Z,95.79
2022-12-20T05:22:43.712Z,95.98
2022-12-20T05:23:43.714Z,95.98
2022-12-20T05:24:43.701Z,96.08
2022-12-20T05:25:43.711Z,96.08
2022-12-20T05:26:43.686Z,95.60
2022-12-20T05:27:43.670Z,95.41
2022-12-20T05:28:43.673Z,95.41
2022-12-20T05:29:43.655Z,95.22
2022-12-20T05:30:43.664Z,95.22
2022-12-20T05:31:43.726Z,96.08
2022-12-20T05:32:43.641Z,95.41
2022-12-20T05:33:43.656Z,95.22
2022-12-20T05:34:43.621Z,95.41
2022-12-20T05:35:43.626Z,95.41
2022-12-20T05:36:43.636Z,95.79
2022-12-20T05:37:43.606Z,95.98
2022-12-20T05:38:43.590Z,95.98
2022-12-20T05:39:43.703Z,96.08
2022-12-20T05:40:43.568Z,95.98
2022-12-20T05:41:43.591Z,96.08
2022-12-20T05:42:43.549Z,95.98
2022-12-20T05:43:43.538Z,96.08
2022-12-20T05:44:43.546Z,95.98
2022-12-20T05:45:43.560Z,95.98
2022-12-20T05:46:43.564Z,95.88
2022-12-20T05:47:43.529Z,95.69
2022-12-20T05:48:43.497Z,95.88
2022-12-20T05:49:43.495Z,95.60
2022-12-20T05:50:43.478Z,95.98
2022-12-20T05:51:43.512Z,95.98
2022-12-20T05:52:43.459Z,95.60
2022-12-20T05:53:50.632Z,95.60
2022-12-20T05:55:47.968Z,96.17
2022-12-20T05:56:47.927Z,95.79
2022-12-20T05:57:47.917Z,95.88
2022-12-20T05:58:47.898Z,95.88
2022-12-20T05:59:47.898Z,95.60
2022-12-20T06:00:47.881Z,95.60
2022-12-20T06:01:48.025Z,95.69
2022-12-20T06:02:48.131Z,96.26
2022-12-20T06:03:47.980Z,96.08
2022-12-20T06:04:47.856Z,95.98
2022-12-20T06:05:47.852Z,96.08
2022-12-20T06:06:47.832Z,96.08
2022-12-20T06:07:47.827Z,96.26
2022-12-20T06:08:47.827Z,96.08
2022-12-20T06:09:47.844Z,96.26
2022-12-20T06:10:47.830Z,96.08
2022-12-20T06:11:47.798Z,95.98
2022-12-20T06:12:47.779Z,95.98
2022-12-20T06:13:47.772Z,96.26
2022-12-20T06:14:47.773Z,96.17
2022-12-20T06:15:47.769Z,96.36
2022-12-20T06:16:47.824Z,95.88
2022-12-20T06:17:47.744Z,96.73
2022-12-20T06:18:47.754Z,96.83
2022-12-20T06:19:47.739Z,96.45
2022-12-20T06:20:47.727Z,96.92
2022-12-20T06:21:47.706Z,97.02
2022-12-20T06:22:47.706Z,96.83
2022-12-20T06:23:47.687Z,96.83
2022-12-20T06:24:48.787Z,96.83
2022-12-20T06:25:47.684Z,97.50
2022-12-20T06:26:47.686Z,97.26
2022-12-20T06:27:47.676Z,97.02
2022-12-20T06:28:47.666Z,97.50
2022-12-20T06:29:47.646Z,97.69
2022-12-20T06:30:47.633Z,97.74
2022-12-20T06:31:47.715Z,97.50
2022-12-20T06:32:47.634Z,97.97
2022-12-20T06:33:47.613Z,97.83
2022-12-20T06:34:47.607Z,97.74
2022-12-20T06:35:47.592Z,98.16
2022-12-20T06:36:47.597Z,97.78
2022-12-20T06:37:47.584Z,97.92
2022-12-20T06:38:47.566Z,98.21
2022-12-20T06:39:47.563Z,98.78
2022-12-20T06:40:47.569Z,98.35
2022-12-20T06:41:47.558Z,98.40
2022-12-20T06:42:47.548Z,98.54
2022-12-20T06:43:47.540Z,99.26
2022-12-20T06:44:47.525Z,98.87
2022-12-20T06:45:47.571Z,99.26
2022-12-20T06:46:47.511Z,99.06
2022-12-20T06:47:47.499Z,99.35
2022-12-20T06:48:47.492Z,98.78
2022-12-20T06:49:47.495Z,99.44
2022-12-20T06:50:53.730Z,99.44
2022-12-20T06:51:47.470Z,99.26
2022-12-20T06:52:47.461Z,99.06
2022-12-20T06:53:47.450Z,99.44
2022-12-20T06:54:47.474Z,99.44
2022-12-20T06:55:47.448Z,99.26
2022-12-20T06:56:47.451Z,99.99
2022-12-20T06:57:47.425Z,99.99
2022-12-20T06:58:47.450Z,99.99
2022-12-20T06:59:47.424Z,99.99
2022-12-20T07:00:47.433Z,99.99
2022-12-20T07:01:47.658Z,99.99
2022-12-20T07:02:47.553Z,99.99
2022-12-20T07:03:47.443Z,99.73
2022-12-20T07:04:47.404Z,99.99
2022-12-20T07:05:47.365Z,99.99
2022-12-20T07:06:47.391Z,99.99
2022-12-20T07:07:47.337Z,99.99
2022-12-20T07:08:47.332Z,99.99
2022-12-20T07:09:47.331Z,99.99
2022-12-20T07:10:47.322Z,99.99
2022-12-20T07:11:47.316Z,99.99
2022-12-20T07:12:48.344Z,99.99
2022-12-20T07:13:47.295Z,99.99
2022-12-20T07:14:47.314Z,99.99
2022-12-20T07:15:47.280Z,99.99
2022-12-20T07:16:47.325Z,99.99
2022-12-20T07:17:47.265Z,99.99
2022-12-20T07:18:47.256Z,99.99
2022-12-20T07:19:50.945Z,99.99
2022-12-20T07:20:47.235Z,99.99
2022-12-20T07:21:47.258Z,99.99
2022-12-20T07:22:47.223Z,99.99
2022-12-20T07:23:47.229Z,99.99
2022-12-20T07:24:47.203Z,99.99
2022-12-20T07:25:47.196Z,99.99
2022-12-20T07:26:47.202Z,99.99
2022-12-20T07:27:47.174Z,99.99
2022-12-20T07:28:47.189Z,99.99
2022-12-20T07:29:47.160Z,99.99
2022-12-20T07:30:47.189Z,99.99
2022-12-20T07:31:47.249Z,99.99
2022-12-20T07:32:47.152Z,99.99
2022-12-20T07:33:47.128Z,99.99
2022-12-20T07:34:47.133Z,99.99
2022-12-20T07:35:52.410Z,99.99
2022-12-20T07:36:47.122Z,99.99
2022-12-20T07:37:47.131Z,99.99
2022-12-20T07:38:47.110Z,99.99
2022-12-20T07:39:47.084Z,99.99
2022-12-20T07:40:47.076Z,99.99
2022-12-20T07:41:47.067Z,99.99
2022-12-20T07:42:49.097Z,99.99
2022-12-20T07:43:47.045Z,99.99
2022-12-20T07:44:47.051Z,99.99
2022-12-20T07:45:47.077Z,99.99
2022-12-20T07:46:47.108Z,99.99
2022-12-20T07:47:47.049Z,99.99
2022-12-20T07:48:47.025Z,99.99
2022-12-20T07:49:47.027Z,99.99
2022-12-20T07:50:47.007Z,99.99
2022-12-20T07:51:47.003Z,99.99
2022-12-20T07:52:47.057Z,99.99
2022-12-20T07:53:46.991Z,99.99
2022-12-20T07:54:46.979Z,99.99
2022-12-20T07:55:46.969Z,99.99
2022-12-20T07:56:46.967Z,99.99
2022-12-20T07:57:46.947Z,99.99
2022-12-20T07:58:46.969Z,99.99
2022-12-20T07:59:46.926Z,99.99
2022-12-20T08:00:46.971Z,99.99
2022-12-20T08:01:47.192Z,99.99
2022-12-20T08:02:47.192Z,99.99
2022-12-20T08:03:46.994Z,99.99
2022-12-20T08:04:46.920Z,99.99
2022-12-20T08:05:46.889Z,99.99
2022-12-20T08:06:46.879Z,99.99
2022-12-20T08:07:46.928Z,99.99
2022-12-20T08:08:46.870Z,99.99
2022-12-20T08:09:46.910Z,99.99
2022-12-20T08:10:46.856Z,99.99
2022-12-20T08:11:46.837Z,99.99
2022-12-20T08:12:46.836Z,99.99
2022-12-20T08:13:48.811Z,99.99
2022-12-20T08:14:46.829Z,99.99
2022-12-20T08:15:46.843Z,99.99
2022-12-20T08:16:46.927Z,99.99
2022-12-20T08:17:46.807Z,99.99
2022-12-20T08:18:46.792Z,99.99
2022-12-20T08:19:46.821Z,99.99
2022-12-20T08:20:46.787Z,99.99
2022-12-20T08:21:46.777Z,99.99
2022-12-20T08:22:46.753Z,99.99
2022-12-20T08:23:46.744Z,99.99
2022-12-20T08:24:46.754Z,99.99
2022-12-20T08:25:46.770Z,99.99
2022-12-20T08:26:46.725Z,99.99
2022-12-20T08:27:46.742Z,99.99
2022-12-20T08:28:46.736Z,99.99
2022-12-20T08:29:46.708Z,99.99
2022-12-20T08:30:46.770Z,99.99
2022-12-20T08:31:50.353Z,99.99
2022-12-20T08:32:46.696Z,99.99
2022-12-20T08:33:46.671Z,99.99
2022-12-20T08:34:46.667Z,99.99
2022-12-20T08:35:46.683Z,99.99
2022-12-20T08:36:46.676Z,99.99
2022-12-20T08:37:46.637Z,99.99
2022-12-20T08:38:46.632Z,99.99
2022-12-20T08:39:46.628Z,99.99
2022-12-20T08:40:46.654Z,99.99
2022-12-20T08:41:46.624Z,99.99
2022-12-20T08:42:46.623Z,99.99
2022-12-20T08:43:46.609Z,99.99
2022-12-20T08:44:46.591Z,99.99
2022-12-20T08:45:46.613Z,99.99
2022-12-20T08:46:46.601Z,99.99
2022-12-20T08:47:46.559Z,99.99
2022-12-20T08:48:46.572Z,99.99
2022-12-20T08:49:48.041Z,99.99
2022-12-20T08:50:46.616Z,99.99
2022-12-20T08:51:46.629Z,99.99
2022-12-20T08:52:46.529Z,99.99
2022-12-20T08:53:46.537Z,99.99
2022-12-20T08:54:46.518Z,99.99
2022-12-20T08:55:46.505Z,99.99
2022-12-20T08:56:46.503Z,99.99
2022-12-20T08:57:46.493Z,99.99
2022-12-20T08:58:46.540Z,99.99
2022-12-20T08:59:46.479Z,99.99
2022-12-20T09:00:46.478Z,99.99
2022-12-20T09:01:46.539Z,99.99
2022-12-20T09:02:46.588Z,99.99
2022-12-20T09:03:46.562Z,99.99
2022-12-20T09:04:46.438Z,99.99
2022-12-20T09:05:46.461Z,99.99
2022-12-20T09:06:46.505Z,99.99
2022-12-20T09:07:46.467Z,99.99
2022-12-20T09:08:46.405Z,99.99
2022-12-20T09:09:46.412Z,99.99
2022-12-20T09:10:46.392Z,99.99
2022-12-20T09:11:46.392Z,99.99
2022-12-20T09:12:46.375Z,99.99
2022-12-20T09:13:46.386Z,99.99
2022-12-20T09:14:46.369Z,99.99
2022-12-20T09:15:46.457Z,99.99
2022-12-20T09:16:46.349Z,99.99
2022-12-20T09:17:46.350Z,99.99
2022-12-20T09:18:46.368Z,99.99
2022-12-20T09:19:46.355Z,99.99
2022-12-20T09:20:46.323Z,99.99
2022-12-20T09:21:46.303Z,99.99
2022-12-20T09:22:46.310Z,99.99
2022-12-20T09:23:46.308Z,99.99
2022-12-20T09:24:46.336Z,99.99
2022-12-20T09:25:50.319Z,99.99
2022-12-20T09:26:46.282Z,99.99
2022-12-20T09:27:46.271Z,99.99
2022-12-20T09:28:46.260Z,99.99
2022-12-20T09:29:46.247Z,99.99
2022-12-20T09:30:46.260Z,99.99
2022-12-20T09:31:46.334Z,99.99
2022-12-20T09:32:46.235Z,99.99
2022-12-20T09:33:46.275Z,99.99
2022-12-20T09:34:46.217Z,99.99
2022-12-20T09:35:46.208Z,99.99
2022-12-20T09:36:46.211Z,99.99
2022-12-20T09:37:46.202Z,99.99
2022-12-20T09:38:46.200Z,99.99
2022-12-20T09:39:46.191Z,99.99
2022-12-20T09:40:46.188Z,99.99
2022-12-20T09:41:46.176Z,99.99
2022-12-20T09:42:46.162Z,99.99
2022-12-20T09:43:46.159Z,99.99
2022-12-20T09:44:46.156Z,99.99
2022-12-20T09:45:46.139Z,99.99
2022-12-20T09:46:46.205Z,99.99
2022-12-20T09:47:46.125Z,99.99
2022-12-20T09:48:46.134Z,99.99
2022-12-20T09:49:46.120Z,99.99
2022-12-20T09:50:46.124Z,99.99
2022-12-20T09:51:46.104Z,99.99
2022-12-20T09:52:46.103Z,99.99
2022-12-20T09:53:46.100Z,99.99
2022-12-20T09:54:46.085Z,99.99
2022-12-20T09:55:46.081Z,99.99
2022-12-20T09:56:46.069Z,99.99
2022-12-20T09:57:46.062Z,99.99
2022-12-20T09:58:46.068Z,99.99
2022-12-20T09:59:49.450Z,99.99
2022-12-20T10:00:51.705Z,99.99
2022-12-20T10:01:46.085Z,99.99
2022-12-20T10:03:09.411Z,99.99
2022-12-20T10:03:46.266Z,99.99
2022-12-20T10:04:46.240Z,99.99
2022-12-20T10:05:46.286Z,99.99
2022-12-20T10:06:46.023Z,99.99
2022-12-20T10:07:46.004Z,99.99
2022-12-20T10:08:46.019Z,99.99
2022-12-20T10:09:46.022Z,99.99
2022-12-20T10:10:45.979Z,99.99
2022-12-20T10:11:50.484Z,99.99
2022-12-20T10:12:45.975Z,99.99
2022-12-20T10:13:46.026Z,99.99
2022-12-20T10:14:45.985Z,99.99
2022-12-20T10:15:45.999Z,99.99
2022-12-20T10:16:45.947Z,99.99
2022-12-20T10:17:45.947Z,99.99
2022-12-20T10:18:45.948Z,99.99
2022-12-20T10:19:45.960Z,99.99
2022-12-20T10:20:45.943Z,99.99
2022-12-20T10:21:45.946Z,99.99
2022-12-20T10:22:45.912Z,99.99
2022-12-20T10:23:45.945Z,99.99
2022-12-20T10:24:45.945Z,99.99
2022-12-20T10:25:45.895Z,99.99
2022-12-20T10:26:45.909Z,99.99
2022-12-20T10:27:45.911Z,99.99
2022-12-20T10:28:49.304Z,99.99
2022-12-20T10:29:45.877Z,99.99
2022-12-20T10:30:46.013Z,99.99
2022-12-20T10:31:45.963Z,99.99
2022-12-20T10:32:45.857Z,99.99
2022-12-20T10:33:45.866Z,99.99
2022-12-20T10:34:48.687Z,99.99
2022-12-20T10:35:45.851Z,99.99
2022-12-20T10:36:45.865Z,99.99
2022-12-20T10:38:06.498Z,99.99
2022-12-20T10:38:45.815Z,99.99
2022-12-20T10:39:45.840Z,99.99
2022-12-20T10:41:19.556Z,99.99
2022-12-20T10:41:45.803Z,99.99
2022-12-20T10:42:45.794Z,99.99
2022-12-20T10:43:45.802Z,99.99
2022-12-20T10:44:45.777Z,99.99
2022-12-20T10:45:45.793Z,99.99
2022-12-20T10:46:45.869Z,99.99
2022-12-20T10:47:45.764Z,99.99
2022-12-20T10:48:45.847Z,99.99
2022-12-20T10:49:45.763Z,99.99
2022-12-20T10:50:45.752Z,99.99
2022-12-20T10:51:45.752Z,99.99
2022-12-20T10:52:45.743Z,99.99
2022-12-20T10:53:45.726Z,99.99
2022-12-20T10:54:45.748Z,99.99
2022-12-20T10:55:45.735Z,99.99
2022-12-20T10:56:45.745Z,99.99
2022-12-20T10:57:45.719Z,99.99
2022-12-20T10:58:45.710Z,99.99
2022-12-20T10:59:45.709Z,99.99
2022-12-20T11:00:45.716Z,99.99
2022-12-20T11:01:45.776Z,99.99
2022-12-20T11:02:45.841Z,99.99
2022-12-20T11:03:45.756Z,99.99
2022-12-20T11:04:45.954Z,99.99
2022-12-20T11:05:45.654Z,99.99
2022-12-20T11:06:45.649Z,99.99
2022-12-20T11:08:08.481Z,99.99
2022-12-20T11:08:52.518Z,99.99
2022-12-20T11:09:45.629Z,99.99
2022-12-20T11:10:45.646Z,99.99
2022-12-20T11:11:45.613Z,99.99
2022-12-20T11:12:45.648Z,99.99
2022-12-20T11:13:45.603Z,99.99
2022-12-20T11:14:45.632Z,99.99
2022-12-20T11:15:45.675Z,99.99
2022-12-20T11:16:45.639Z,99.99
2022-12-20T11:17:45.598Z,99.99
2022-12-20T11:18:45.593Z,99.99
2022-12-20T11:19:45.564Z,99.99
2022-12-20T11:20:45.554Z,99.99
2022-12-20T11:21:45.568Z,99.99
2022-12-20T11:22:45.550Z,99.99
2022-12-20T11:23:45.537Z,99.99
2022-12-20T11:24:45.527Z,99.99
2022-12-20T11:25:45.535Z,99.99
2022-12-20T11:26:45.516Z,99.99
2022-12-20T11:27:45.523Z,99.99
2022-12-20T11:28:45.509Z,99.99
2022-12-20T11:29:45.515Z,99.99
2022-12-20T11:30:45.486Z,99.99
2022-12-20T11:31:45.562Z,99.99
2022-12-20T11:32:48.894Z,99.99
2022-12-20T11:33:45.481Z,99.99
2022-12-20T11:34:45.501Z,99.97
2022-12-20T11:35:45.466Z,99.99
2022-12-20T11:36:45.476Z,99.99
2022-12-20T11:37:45.459Z,99.99
2022-12-20T11:38:45.433Z,99.50
2022-12-20T11:39:45.428Z,99.40
2022-12-20T11:40:45.465Z,99.78
2022-12-20T11:41:45.427Z,99.69
2022-12-20T11:42:45.405Z,99.99
2022-12-20T11:44:15.668Z,99.40
2022-12-20T11:44:53.274Z,99.30
2022-12-20T11:45:45.405Z,99.59
2022-12-20T11:46:45.459Z,99.59
2022-12-20T11:47:45.390Z,99.11
2022-12-20T11:48:45.380Z,99.30
2022-12-20T11:49:45.373Z,99.30
2022-12-20T11:50:45.357Z,99.21
2022-12-20T11:51:45.356Z,99.40
2022-12-20T11:52:45.351Z,99.11
2022-12-20T11:53:45.345Z,98.83
2022-12-20T11:54:45.351Z,99.11
2022-12-20T11:55:45.332Z,98.74
2022-12-20T11:56:45.537Z,98.55
2022-12-20T11:58:09.473Z,98.64
2022-12-20T11:58:45.324Z,98.64
2022-12-20T11:59:45.320Z,98.55
2022-12-20T12:00:45.318Z,98.55
2022-12-20T12:01:45.443Z,98.55
2022-12-20T12:02:45.408Z,98.45
2022-12-20T12:03:45.292Z,98.55
2022-12-20T12:04:45.344Z,98.64
2022-12-20T12:05:45.336Z,98.36
2022-12-20T12:06:45.288Z,98.55
2022-12-20T12:07:45.284Z,98.55
2022-12-20T12:08:45.261Z,98.55
2022-12-20T12:09:45.245Z,98.45
2022-12-20T12:10:45.269Z,98.74
2022-12-20T12:12:45.301Z,98.74
2022-12-20T12:13:45.233Z,98.36
2022-12-20T12:14:45.218Z,98.45
2022-12-20T12:15:45.215Z,98.64
2022-12-20T12:16:45.241Z,98.74
2022-12-20T12:17:45.216Z,98.74
2022-12-20T12:18:45.181Z,98.45
2022-12-20T12:19:45.192Z,98.55
2022-12-20T12:20:45.174Z,98.64
2022-12-20T12:21:45.174Z,98.55
2022-12-20T12:22:45.187Z,98.64
2022-12-20T12:23:45.172Z,98.74
2022-12-20T12:24:45.228Z,98.74
2022-12-20T12:25:45.148Z,98.83
2022-12-20T12:26:45.137Z,98.83
2022-12-20T12:27:45.173Z,98.74
2022-12-20T12:28:45.140Z,98.74
2022-12-20T12:29:45.215Z,98.74
2022-12-20T12:30:45.108Z,98.64
2022-12-20T12:31:45.145Z,98.55
2022-12-20T12:32:45.112Z,98.93
2022-12-20T12:33:45.147Z,98.74
2022-12-20T12:34:45.119Z,99.99
2022-12-20T12:35:45.091Z,99.99
2022-12-20T12:36:45.075Z,99.99
2022-12-20T12:37:45.068Z,99.99
2022-12-20T12:38:45.080Z,99.99
2022-12-20T12:39:45.078Z,99.69
2022-12-20T12:40:51.997Z,99.02
2022-12-20T12:41:45.048Z,98.13
2022-12-20T12:42:45.044Z,97.46
2022-12-20T12:43:45.098Z,96.79
2022-12-20T12:44:45.075Z,96.22
2022-12-20T12:45:45.102Z,95.56
2022-12-20T12:46:45.029Z,95.17
2022-12-20T12:47:45.092Z,93.84
2022-12-20T12:48:45.012Z,94.08
2022-12-20T12:49:45.058Z,93.51
2022-12-20T12:50:45.003Z,92.27
2022-12-20T12:51:44.999Z,92.27
2022-12-20T12:52:44.979Z,91.22
2022-12-20T12:53:44.987Z,91.31
2022-12-20T12:54:44.997Z,91.60
2022-12-20T12:55:44.984Z,91.22
2022-12-20T12:56:46.414Z,90.36
2022-12-20T12:57:44.949Z,89.61
2022-12-20T12:58:48.974Z,89.89
2022-12-20T12:59:44.955Z,90.17
2022-12-20T13:00:45.040Z,90.46
2022-12-20T13:01:45.168Z,89.61
2022-12-20T13:02:45.183Z,88.18
2022-12-20T13:03:45.026Z,87.89
2022-12-20T13:04:44.917Z,87.46
2022-12-20T13:05:44.922Z,87.27
2022-12-20T13:06:44.910Z,87.75
2022-12-20T13:07:44.905Z,88.32
2022-12-20T13:08:44.896Z,88.75
2022-12-20T13:09:44.910Z,89.04
2022-12-20T13:10:44.910Z,89.42
2022-12-20T13:11:47.891Z,90.28
2022-12-20T13:12:44.881Z,89.99
2022-12-20T13:13:44.868Z,90.47
2022-12-20T13:14:44.857Z,90.84